DW1685 Weather Reports


Display with metric or nautical units.
time (UTC)temp
F
wind
direction
speed
MPH
gust
MPH
rain 1hr
in
rain 24hr
in
rain mn
in
humidity
%
barometer
mb
20190116040042 52 175 2.0 10.0 0.00 0.99 0.93 98 1012.5
20190116034551 52 188 6.0 11.0 0.00 0.99 0.93 98 1012.3
20190116033018 52 189 9.0 18.0 0.02 0.99 0.93 98 1012.1
20190116031524 52 195 8.0 14.0 0.04 0.99 0.93 98 1011.5
20190116030046 52 178 4.0 15.0 0.06 0.99 0.93 98 1011.0
20190116024515 53 198 5.0 14.0 0.07 0.99 0.93 98 1010.6
20190116023037 52 122 5.0 17.0 0.06 0.97 0.91 98 1010.1
20190116021518 51 129 6.0 22.0 0.04 0.95 0.89 98 1010.2
20190116020006 51 113 9.0 24.0 0.02 0.93 0.87 98 1009.3
20190116014512 51 168 13.0 29.0 0.03 0.92 0.86 98 1009.0
20190116013003 51 150 8.0 29.0 0.04 0.91 0.85 98 1008.8
20190116011714 51 149 10.0 33.0 0.05 0.91 0.85 97 1008.0
20190116010232 51 136 11.0 34.0 0.07 0.91 0.85 98 1008.1
20190116004630 51 133 11.0 26.0 0.08 0.89 0.83 97 1008.2
20190116003201 51 153 10.0 24.0 0.06 0.87 0.81 97 1007.5
20190116001708 51 166 13.0 28.0 0.07 0.86 0.80 97 1007.9
20190116000145 51 97 13.0 33.0 0.05 0.83 0.77 97 1007.7
20190115234738 51 205 11.0 30.0 0.05 0.88 0.75 97 1007.2
20190115233146 51 176 12.0 33.0 0.06 0.88 0.75 97 1007.1
20190115231620 51 158 9.0 33.0 0.05 0.86 0.73 97 1006.9
20190115230142 51 266 12.0 37.0 0.05 0.85 0.72 97 1006.7
20190115224606 51 173 12.0 35.0 0.03 0.83 0.70 97 1006.9
20190115223100 51 142 10.0 36.0 0.03 0.82 0.69 96 1006.4
20190115221630 51 123 12.0 34.0 0.02 0.81 0.68 96 1006.1
20190115220108 52 172 11.0 34.0 0.02 0.80 0.67 95 1005.9
20190115214633 52 159 13.0 37.0 0.02 0.97 0.67 95 1006.0
20190115213049 52 146 9.0 33.0 0.01 0.96 0.66 95 1005.8
20190115211556 52 151 12.0 37.0 0.02 0.96 0.66 95 1005.8
20190115210119 52 109 12.0 37.0 0.02 0.95 0.65 95 1006.0
20190115204639 52 103 12.0 41.0 0.04 0.96 0.65 95 1006.4
20190115203047 52 109 12.0 35.0 0.04 0.96 0.65 95 1006.5
20190115201615 52 145 9.0 36.0 0.05 0.95 0.64 94 1006.9
20190115200050 51 145 7.0 31.0 0.04 0.94 0.63 94 1007.7
20190115194531 51 162 12.0 33.0 0.02 0.92 0.61 95 1007.8
20190115193043 51 118 10.0 34.0 0.04 0.92 0.61 95 1008.4
20190115190050 51 124 15.0 32.0 0.04 0.90 0.59 94 1009.2
20190115184529 51 83 10.0 30.0 0.04 0.89 0.57 94 1009.3
20190115183032 52 180 11.0 25.0 0.04 0.88 0.56 92 1009.7
20190115181514 52 165 12.0 31.0 0.07 0.88 0.56 91 1009.3
20190115180210 51 145 10.0 33.0 0.06 0.86 0.55 92 1009.4
20190115174628 51 163 10.0 24.0 0.06 0.86 0.54 93 1009.3
20190115173241 51 145 6.0 24.0 0.06 0.85 0.53 92 1009.3
20190115171618 51 169 9.0 39.0 0.07 0.83 0.51 91 1009.3
20190115170217 51 140 10.0 30.0 0.08 0.81 0.49 92 1009.2
20190115164626 51 107 7.0 25.0 0.09 0.82 0.48 93 1009.2
20190115163207 51 128 8.0 28.0 0.08 0.80 0.46 95 1009.2
20190115161603 51 118 8.0 20.0 0.09 0.78 0.44 95 1009.1
20190115160140 51 114 10.0 28.0 0.07 0.75 0.41 93 1009.4
20190115154644 51 131 3.0 20.0 0.06 0.82 0.39 92 1009.7
20190115153118 51 327 6.0 29.0 0.06 0.81 0.38 92 1009.9
20190115151608 51 189 7.0 24.0 0.05 0.78 0.35 91 1010.0
20190115150142 51 140 6.0 25.0 0.07 0.77 0.34 92 1010.1
20190115144611 51 113 8.0 24.0 0.09 0.78 0.33 91 1010.0
20190115143129 51 115 5.0 27.0 0.09 0.77 0.32 91 1009.9
20190115141627 51 112 6.0 22.0 0.07 0.75 0.30 93 1009.8
20190115140120 51 128 5.0 22.0 0.05 0.72 0.27 92 1009.9
20190115134556 51 148 4.0 17.0 0.04 0.69 0.24 91 1009.9
20190115133100 51 136 4.0 21.0 0.06 0.68 0.23 91 1009.7
20190115131514 51 41 6.0 21.0 0.07 0.68 0.23 92 1009.8
20190115130021 50 99 6.0 16.0 0.07 0.67 0.22 94 1009.9
20190115124519 50 144 7.0 20.0 0.06 0.65 0.20 94 1010.2
20190115123002 50 90 6.0 17.0 0.04 0.62 0.17 94 1010.3
20190115121706 50 244 7.0 27.0 0.03 0.61 0.16 94 1010.7
20190115120301 50 132 9.0 23.0 0.03 0.60 0.15 94 1010.4
20190115114631 50 148 7.0 21.0 0.03 0.59 0.14 91 1010.7
20190115113131 50 127 6.0 17.0 0.03 0.57 0.13 91 1010.7
20190115111618 50 109 4.0 18.0 0.03 0.57 0.13 90 1010.9
20190115110223 50 88 5.0 17.0 0.02 0.56 0.12 90 1011.0
20190115104717 50 130 6.0 23.0 0.02 0.56 0.11 90 1011.1
20190115103116 50 158 4.0 18.0 0.03 0.55 0.10 90 1011.4
20190115101617 51 112 6.0 19.0 0.06 0.55 0.10 89 1011.6
20190115100140 50 154 9.0 27.0 0.07 0.55 0.10 90 1011.6
20190115094622 50 163 5.0 20.0 0.06 0.54 0.09 92 1011.7
20190115093124 49 113 9.0 19.0 0.06 0.52 0.07 93 1011.6
20190115091544 49 59 5.0 15.0 0.04 0.49 0.04 92 1011.6
20190115090100 49 74 6.0 23.0 0.03 0.48 0.03 92 1011.8
20190115084649 49 40 6.0 19.0 0.03 0.48 0.03 91 1011.8
20190115083054 50 111 7.0 17.0 0.02 0.46 0.01 89 1011.9
20190115081548 51 137 5.0 14.0 0.03 0.45 0.00 85 1011.9
20190115080041 50 9 5.0 18.0 0.05 0.45 0.00 85 1012.0
20190115074527 50 125 11.0 22.0 0.05 0.45 0.45 87 1012.0
20190115073059 50 128 6.0 26.0 0.05 0.44 0.44 89 1012.1
20190115071525 50 165 6.0 16.0 0.03 0.42 0.42 88 1012.0
20190115070056 50 119 5.0 20.0 0.01 0.40 0.40 87 1012.0
20190115064552 50 117 6.0 19.0 0.01 0.40 0.40 87 1012.2
20190115063038 51 100 2.0 18.0 0.00 0.39 0.39 84 1012.2
20190115061535 51 168 5.0 19.0 0.00 0.39 0.39 84 1012.2
20190115060034 51 98 5.0 19.0 0.00 0.39 0.39 84 1012.2
20190115054527 51 118 7.0 15.0 0.00 0.39 0.39 81 1012.0
20190115053027 51 111 5.0 16.0 0.00 0.39 0.39 79 1011.9
20190115051528 51 74 4.0 17.0 0.00 0.39 0.39 80 1011.9
20190115050039 51 184 6.0 18.0 0.00 0.39 0.39 81 1012.0
20190115044514 51 72 6.0 17.0 0.00 0.39 0.39 82 1012.0
20190115043035 51 89 4.0 13.0 0.00 0.39 0.39 85 1012.1
20190115041522 51 123 5.0 14.0 0.00 0.39 0.39 87 1012.0